createdAt,value
2018-11-03T00:00:32.443Z,7.53
2018-11-03T00:03:00.563Z,11.57
2018-11-03T00:05:28.691Z,10.63
2018-11-03T00:07:56.815Z,7.73
2018-11-03T00:10:24.924Z,8.50
2018-11-03T00:15:46.077Z,10.47
2018-11-03T00:18:14.154Z,9.40
2018-11-03T00:23:34.521Z,12.43
2018-11-03T00:26:02.652Z,11.00
2018-11-03T00:28:30.717Z,8.57
2018-11-03T00:30:58.850Z,16.50
2018-11-03T00:33:26.957Z,15.47
2018-11-03T00:35:55.025Z,15.50
2018-11-03T00:38:23.134Z,16.80
2018-11-03T00:40:51.238Z,15.47
2018-11-03T00:43:19.356Z,14.03
2018-11-03T00:45:47.504Z,12.60
2018-11-03T00:48:15.566Z,13.87
2018-11-03T00:50:43.658Z,13.23
2018-11-03T00:53:11.744Z,13.13
2018-11-03T00:55:39.902Z,13.77
2018-11-03T00:58:08.015Z,16.87
2018-11-03T01:00:36.146Z,10.20
2018-11-03T01:03:04.232Z,10.20
2018-11-03T01:05:32.323Z,10.00
2018-11-03T01:08:00.434Z,8.43
2018-11-03T01:10:28.536Z,7.83
2018-11-03T01:15:49.290Z,8.93
2018-11-03T01:18:17.401Z,12.20
2018-11-03T01:23:38.037Z,16.57
2018-11-03T01:26:06.090Z,14.97
2018-11-03T01:28:34.187Z,11.63
2018-11-03T01:31:02.284Z,16.70
2018-11-03T01:33:30.411Z,15.97
2018-11-03T01:35:58.508Z,19.60
2018-11-03T01:38:26.583Z,20.47
2018-11-03T01:40:54.710Z,10.27
2018-11-03T01:43:22.802Z,12.30
2018-11-03T01:45:50.899Z,14.30
2018-11-03T01:48:18.990Z,14.10
2018-11-03T01:50:47.118Z,12.23
2018-11-03T01:53:15.208Z,15.17
2018-11-03T01:55:43.297Z,16.23
2018-11-03T01:58:11.374Z,21.23
2018-11-03T02:00:39.461Z,21.80
2018-11-03T02:03:07.558Z,19.70
2018-11-03T02:05:35.678Z,21.70
2018-11-03T02:08:03.778Z,21.27
2018-11-03T02:10:31.905Z,26.37
2018-11-03T02:12:59.963Z,24.40
2018-11-03T02:15:28.075Z,26.23
2018-11-03T02:17:56.146Z,24.67
2018-11-03T02:23:16.905Z,32.20
2018-11-03T02:25:44.997Z,29.20
2018-11-03T03:16:38.702Z,32.90
2018-11-03T04:13:52.118Z,31.13
2018-11-03T04:22:45.523Z,30.13
2018-11-03T04:28:06.521Z,28.00
2018-11-03T04:30:34.620Z,30.43
2018-11-03T04:33:02.734Z,33.60
2018-11-03T04:35:30.842Z,26.80
2018-11-03T04:37:58.957Z,28.63
2018-11-03T04:40:27.048Z,33.00
2018-11-03T04:42:55.142Z,30.50
2018-11-03T04:45:23.318Z,32.40
2018-11-03T04:47:51.331Z,31.37
2018-11-03T04:50:19.423Z,32.60
2018-11-03T04:52:47.534Z,36.03
2018-11-03T04:55:15.678Z,33.57
2018-11-03T04:57:43.747Z,31.90
2018-11-03T05:00:12.013Z,27.77
2018-11-03T05:02:40.131Z,33.13
2018-11-03T05:05:08.269Z,35.67
2018-11-03T05:07:36.340Z,35.57
2018-11-03T05:10:05.050Z,35.03
2018-11-03T05:12:33.092Z,41.60
2018-11-03T05:17:54.153Z,35.37
2018-11-03T05:20:36.930Z,34.30
2018-11-03T06:14:21.737Z,51.50
2018-11-03T06:16:49.841Z,55.97
2018-11-03T06:19:17.956Z,53.37
2018-11-03T06:21:46.034Z,50.33
2018-11-03T06:24:26.377Z,53.33
2018-11-03T07:24:42.374Z,39.97
2018-11-03T07:30:11.053Z,37.17
2018-11-03T07:32:39.151Z,35.23
2018-11-03T07:35:07.424Z,32.90
2018-11-03T07:37:35.498Z,26.80
2018-11-03T07:40:03.817Z,25.67
2018-11-03T07:42:31.941Z,26.27
2018-11-03T07:45:00.040Z,21.13
2018-11-03T07:47:28.143Z,20.30
2018-11-03T07:49:56.259Z,22.67
2018-11-03T07:52:24.351Z,20.47
2018-11-03T07:54:52.540Z,21.70
2018-11-03T07:57:20.538Z,20.63
2018-11-03T07:59:48.646Z,18.07
2018-11-03T08:02:16.737Z,18.53
2018-11-03T08:04:44.852Z,16.87
2018-11-03T08:07:12.975Z,14.37
2018-11-03T08:09:41.082Z,14.10
2018-11-03T08:12:09.849Z,15.87
2018-11-03T08:14:38.012Z,14.83
2018-11-03T08:17:06.102Z,12.90
2018-11-03T08:19:34.222Z,14.13
2018-11-03T08:30:39.462Z,12.10
2018-11-03T08:33:07.597Z,12.27
2018-11-03T08:35:36.298Z,12.40
2018-11-03T08:38:04.407Z,13.43
2018-11-03T08:40:32.494Z,11.93
2018-11-03T08:43:00.606Z,12.33
2018-11-03T08:45:28.746Z,12.33
2018-11-03T08:47:56.862Z,12.60
2018-11-03T08:50:24.945Z,12.17
2018-11-03T08:52:53.050Z,12.93
2018-11-03T08:55:21.134Z,12.40
2018-11-03T08:57:49.239Z,11.90
2018-11-03T09:00:17.434Z,15.70
2018-11-03T09:02:50.956Z,14.10
2018-11-03T09:05:19.073Z,13.50
2018-11-03T09:07:47.145Z,13.13
2018-11-03T09:10:15.638Z,12.57
2018-11-03T09:12:43.766Z,13.70
2018-11-03T09:29:53.490Z,13.10
2018-11-03T09:32:21.607Z,15.07
2018-11-03T09:34:49.832Z,12.10
2018-11-03T09:37:17.845Z,12.30
2018-11-03T09:39:45.957Z,12.27
2018-11-03T09:42:14.050Z,12.27
2018-11-03T09:44:42.187Z,11.43
2018-11-03T09:47:10.400Z,11.20
2018-11-03T09:49:38.450Z,10.53
2018-11-03T09:52:06.546Z,10.07
2018-11-03T09:54:34.646Z,8.43
2018-11-03T09:57:02.766Z,5.90
2018-11-03T09:59:30.853Z,5.90
2018-11-03T10:01:58.947Z,6.80
2018-11-03T10:04:27.032Z,4.40
2018-11-03T10:06:55.132Z,5.10
2018-11-03T10:09:23.178Z,5.70
2018-11-03T10:11:51.271Z,5.17
2018-11-03T10:14:19.388Z,5.37
2018-11-03T10:16:47.457Z,4.97
2018-11-03T10:22:07.768Z,4.87
2018-11-03T11:21:56.397Z,6.20
2018-11-03T11:24:24.618Z,6.77
2018-11-03T12:12:44.925Z,3.97
2018-11-03T12:21:07.698Z,4.23
2018-11-03T12:26:28.665Z,2.83
2018-11-03T13:20:29.316Z,2.40
2018-11-03T13:23:04.925Z,3.57
2018-11-03T13:28:47.250Z,4.47
2018-11-03T13:31:15.431Z,3.50
2018-11-03T13:33:43.547Z,3.77
2018-11-03T13:36:11.633Z,2.77
2018-11-03T13:38:39.739Z,2.47
2018-11-03T13:41:07.831Z,4.03
2018-11-03T13:43:35.921Z,2.70
2018-11-03T13:46:03.993Z,2.77
2018-11-03T13:48:32.109Z,2.30
2018-11-03T13:51:00.229Z,3.07
2018-11-03T13:53:28.342Z,2.77
2018-11-03T13:55:56.547Z,3.07
2018-11-03T13:58:24.721Z,2.50
2018-11-03T14:00:52.775Z,3.17
2018-11-03T14:03:20.871Z,3.03
2018-11-03T14:05:48.990Z,4.43
2018-11-03T14:08:17.108Z,5.27
2018-11-03T14:10:45.227Z,4.83
2018-11-03T14:13:13.310Z,2.13
2018-11-03T14:18:33.562Z,2.87
2018-11-03T14:21:01.649Z,4.37
2018-11-03T14:23:35.685Z,2.50
2018-11-03T14:28:56.792Z,4.17
2018-11-03T14:31:24.965Z,2.53
2018-11-03T14:33:53.058Z,1.87
2018-11-03T14:36:21.183Z,2.00
2018-11-03T14:38:49.230Z,3.17
2018-11-03T14:41:17.333Z,1.80
2018-11-03T14:43:45.478Z,4.23
2018-11-03T14:46:13.554Z,3.23
2018-11-03T14:48:41.734Z,3.37
2018-11-03T14:51:09.895Z,2.00
2018-11-03T14:53:37.922Z,2.27
2018-11-03T14:56:06.029Z,2.43
2018-11-03T14:58:34.112Z,2.60
2018-11-03T15:01:02.198Z,2.10
2018-11-03T15:03:30.294Z,2.13
2018-11-03T15:05:58.465Z,3.90
2018-11-03T15:08:26.537Z,2.33
2018-11-03T15:10:54.643Z,3.63
2018-11-03T16:24:46.702Z,12.63
2018-11-03T17:18:35.071Z,16.13
2018-11-03T17:26:59.762Z,12.30
2018-11-03T17:29:27.830Z,12.57
2018-11-03T17:31:55.946Z,12.77
2018-11-03T17:34:24.063Z,12.47
2018-11-03T17:36:52.209Z,10.63
2018-11-03T17:39:20.360Z,14.90
2018-11-03T17:41:48.430Z,9.23
2018-11-03T17:44:16.695Z,14.43
2018-11-03T17:46:44.630Z,11.07
2018-11-03T17:49:12.715Z,10.07
2018-11-03T17:51:40.810Z,9.40
2018-11-03T17:54:08.897Z,10.47
2018-11-03T17:56:36.985Z,10.40
2018-11-03T17:59:05.117Z,11.40
2018-11-03T18:01:33.466Z,8.23
2018-11-03T18:04:01.313Z,9.50
2018-11-03T18:06:29.378Z,10.57
2018-11-03T18:08:57.495Z,12.60
2018-11-03T18:11:25.585Z,9.53
2018-11-03T18:13:53.664Z,10.57
2018-11-03T18:16:21.774Z,9.00
2018-11-03T18:18:49.836Z,6.77
2018-11-03T18:21:18.326Z,8.47
2018-11-03T18:24:09.072Z,8.37
2018-11-03T18:26:37.241Z,6.80
2018-11-03T18:29:05.611Z,9.07
2018-11-03T18:31:33.727Z,8.70
2018-11-03T18:34:01.798Z,7.50
2018-11-03T18:36:29.871Z,8.70
2018-11-03T18:38:57.927Z,9.23
2018-11-03T18:41:26.014Z,11.83
2018-11-03T18:43:54.110Z,11.20
2018-11-03T18:46:22.235Z,12.17
2018-11-03T18:48:50.292Z,9.70
2018-11-03T18:51:18.391Z,14.40
2018-11-03T18:53:46.493Z,16.13
2018-11-03T18:56:14.593Z,11.60
2018-11-03T18:58:42.677Z,16.73
2018-11-03T19:01:10.865Z,10.67
2018-11-03T19:03:38.962Z,8.90
2018-11-03T19:06:07.037Z,13.77
2018-11-03T19:08:35.434Z,9.47
2018-11-03T19:11:04.311Z,13.30
2018-11-03T19:13:32.403Z,12.40
2018-11-03T19:16:22.877Z,24.53
2018-11-03T19:18:50.964Z,10.77
2018-11-03T19:21:19.192Z,12.37
2018-11-03T19:23:48.233Z,9.93
2018-11-03T19:29:09.453Z,15.73
2018-11-03T19:31:37.646Z,16.87
2018-11-03T19:34:05.967Z,18.70
2018-11-03T19:36:34.068Z,13.90
2018-11-03T19:39:02.241Z,16.77
2018-11-03T19:41:30.412Z,13.53
2018-11-03T19:43:58.518Z,17.83
2018-11-03T19:46:26.615Z,16.03
2018-11-03T19:48:54.832Z,17.43
2018-11-03T19:51:22.933Z,13.97
2018-11-03T19:53:51.111Z,15.07
2018-11-03T19:56:19.314Z,14.73
2018-11-03T19:58:47.459Z,16.47
2018-11-03T20:01:15.682Z,19.57
2018-11-03T20:03:43.758Z,17.83
2018-11-03T20:06:11.883Z,15.27
2018-11-03T20:08:40.016Z,16.77
2018-11-03T20:11:08.129Z,16.00
2018-11-03T20:13:36.217Z,18.63
2018-11-03T20:16:04.334Z,16.97
2018-11-03T20:18:32.482Z,20.33
2018-11-03T20:21:18.905Z,21.30
2018-11-03T20:26:39.435Z,20.07
2018-11-03T20:29:08.105Z,18.60
2018-11-03T20:31:36.214Z,23.77
2018-11-03T20:34:04.473Z,22.10
2018-11-03T20:36:32.569Z,22.17
2018-11-03T20:39:00.780Z,21.57
2018-11-03T20:41:28.957Z,20.87
2018-11-03T20:43:57.128Z,18.43
2018-11-03T20:46:25.202Z,19.57
2018-11-03T20:48:53.350Z,19.07
2018-11-03T20:51:21.449Z,20.03
2018-11-03T20:53:49.671Z,19.00
2018-11-03T20:56:17.847Z,17.23
2018-11-03T20:58:46.022Z,23.53
2018-11-03T21:01:14.157Z,21.73
2018-11-03T21:03:42.274Z,20.23
2018-11-03T21:06:10.373Z,22.33
2018-11-03T21:08:38.477Z,18.60
2018-11-03T21:11:06.561Z,25.40
2018-11-03T21:25:27.023Z,26.90
2018-11-03T21:27:55.247Z,24.93
2018-11-03T21:30:24.562Z,23.63
2018-11-03T21:32:52.847Z,21.80
2018-11-03T21:35:20.861Z,20.77
2018-11-03T21:37:48.942Z,18.60
2018-11-03T21:40:17.059Z,22.57
2018-11-03T21:42:45.141Z,23.47
2018-11-03T21:45:13.537Z,18.93
2018-11-03T21:47:41.765Z,22.47
2018-11-03T21:50:10.418Z,19.80
2018-11-03T21:52:38.661Z,20.03
2018-11-03T21:55:07.073Z,21.53
2018-11-03T21:57:35.400Z,21.80
2018-11-03T22:00:03.577Z,19.47
2018-11-03T22:02:31.741Z,21.83
2018-11-03T22:04:59.942Z,20.00
2018-11-03T22:07:28.094Z,23.27
2018-11-03T22:09:56.370Z,28.87
2018-11-03T22:21:21.270Z,22.50
2018-11-03T22:23:49.396Z,24.87
2018-11-03T22:26:17.471Z,22.47
2018-11-03T22:28:45.603Z,21.63
2018-11-03T22:31:13.718Z,27.70
2018-11-03T22:33:41.892Z,23.63
2018-11-03T22:36:09.978Z,25.90
2018-11-03T22:38:38.091Z,24.13
2018-11-03T22:41:06.187Z,24.37
2018-11-03T22:43:34.282Z,20.97
2018-11-03T22:46:02.367Z,23.87
2018-11-03T22:48:30.457Z,21.53
2018-11-03T22:50:58.638Z,26.40
2018-11-03T22:53:26.649Z,23.43
2018-11-03T22:55:55.368Z,22.63
2018-11-03T22:58:23.427Z,25.80
2018-11-03T23:00:56.845Z,22.37
2018-11-03T23:03:25.199Z,25.20
2018-11-03T23:05:53.365Z,24.77
2018-11-03T23:08:21.449Z,24.97
2018-11-03T23:10:49.593Z,22.93
2018-11-03T23:24:18.771Z,20.40
2018-11-03T23:26:46.862Z,21.07
2018-11-03T23:29:14.962Z,20.53
2018-11-03T23:31:43.054Z,20.00
2018-11-03T23:34:12.173Z,21.00
2018-11-03T23:36:40.253Z,19.60
2018-11-03T23:39:09.617Z,22.57
2018-11-03T23:41:37.938Z,21.07
2018-11-03T23:44:06.064Z,21.60
2018-11-03T23:46:34.198Z,19.07
2018-11-03T23:49:02.377Z,21.50
2018-11-03T23:51:30.445Z,17.30
2018-11-03T23:53:58.609Z,18.13
2018-11-03T23:56:26.711Z,28.53
2018-11-03T23:58:54.805Z,19.77
